Estación Meteorológica Peña el Pijo (Robertgarden) [ 01/16/21 20:40:18 CET ]

Fecha Hora Presion(HPa) Temp (°C) Humedad % Rocio (°C) Viento ( m/s) Direccion Lluvia 1Hora(mm) Lluvia 24H(mm) LLuvia Total(mm)
2021-Jan-09 01:10:01 990.500 -0.1 96 -0.7 - N     89.61
2021-Jan-09 02:12:24 990.000 -0.1 96 -0.7 - N     89.61
2021-Jan-09 03:13:02 989.700 0.1 96 -0.5 - N     89.61
2021-Jan-09 04:09:44 989.700 0.1 96 -0.5 - N     89.61
2021-Jan-09 05:09:38 989.300 0.1 96 -0.5 - N     89.61
2021-Jan-09 06:09:45 988.600 0.1 96 -0.5 - N     89.61
2021-Jan-09 07:09:59 988.900 -0.1 96 -0.7 - N     89.61
2021-Jan-09 08:09:27 989.200 -0.2 96 -0.8 - N     89.61
2021-Jan-09 09:09:17 989.600 -0.2 96 -0.8 - N     89.61
2021-Jan-09 10:09:15 990.100 1.0 96 0.4 - N     89.61
2021-Jan-09 11:09:25 990.600 3.6 95 2.8 - N     89.61
2021-Jan-09 12:09:22 990.000 2.6 95 1.9 - N     89.61
2021-Jan-09 13:09:25 989.100 2.8 95 2.0 - N     89.61
2021-Jan-09 14:09:40 989.300 2.9 95 2.0 - N     89.61
2021-Jan-09 15:09:32 989.700 1.5 95 0.8 - N     89.61
2021-Jan-09 16:09:21 990.400 0.9 96 0.3 - N     89.61
2021-Jan-09 17:09:14 991.000 1.0 96 0.4 - N     89.61
2021-Jan-09 18:09:33 991.500 -0.2 95 -0.9 - N     89.61
2021-Jan-09 19:09:15 992.200 -0.8 96 -1.4 - N     89.61
2021-Jan-09 20:09:19 992.800 -1.6 96 -2.2 - N     89.61
2021-Jan-09 21:09:28 993.200 -3.1 96 -3.7 - N     89.61
2021-Jan-09 22:09:23 993.400 -3.6 95 -4.3 - N     89.61
2021-Jan-09 23:09:42 993.200 -4.6 95 -5.3 - N     89.61

Temperatura Máxima:    Temperatura Mínima:-4°
Presión Máxima:993.400 Hpa    Presión Mínima:988.600 Hpa


Volver